WZZ4D1 LEZL-LEMD
Flight info
| Callsign | WZZ4D1 |
|---|---|
| Flight time | 0h 42m |
| Altitude | 32000 |
| Route | HIJ Z230 SOTUK |
| Aircraft | A32N/M-V/N |
Departure
| Time | 2026-03-25 15:58 |
|---|---|
| Airport | Seville Airport (LEZL) |
Arrival
| Time | 2026-03-25 16:40 |
|---|---|
| Airport | Adolfo Suárez Madrid–Barajas Airport (LEMD) |
| Time | Latitude | Longitude | Altitude | Speed | Heading |
|---|---|---|---|---|---|
| 2026-03-25 15:45 | 37.42190 | -5.89731 | 91 ft | 0 kts | 315° |
| 2026-03-25 15:53 | 37.42194 | -5.89736 | 91 ft | 1 kts | 315° |
| 2026-03-25 15:53 | 37.42207 | -5.89751 | 91 ft | 3 kts | 315° |
| 2026-03-25 15:54 | 37.42226 | -5.89780 | 91 ft | 4 kts | 289° |
| 2026-03-25 15:54 | 37.42208 | -5.89825 | 91 ft | 7 kts | 227° |
| 2026-03-25 15:54 | 37.42158 | -5.89890 | 90 ft | 13 kts | 224° |
| 2026-03-25 15:54 | 37.42083 | -5.89982 | 89 ft | 16 kts | 224° |
| 2026-03-25 15:55 | 37.42022 | -5.90093 | 87 ft | 15 kts | 182° |
| 2026-03-25 15:55 | 37.41980 | -5.90188 | 87 ft | 15 kts | 269° |
| 2026-03-25 15:55 | 37.41979 | -5.90324 | 87 ft | 16 kts | 270° |
| 2026-03-25 15:55 | 37.41979 | -5.90484 | 84 ft | 19 kts | 270° |
| 2026-03-25 15:56 | 37.41979 | -5.90660 | 84 ft | 20 kts | 270° |
| 2026-03-25 15:56 | 37.41978 | -5.90846 | 81 ft | 22 kts | 269° |
| 2026-03-25 15:56 | 37.41976 | -5.91039 | 81 ft | 21 kts | 271° |
| 2026-03-25 15:56 | 37.41974 | -5.91229 | 79 ft | 22 kts | 264° |
| 2026-03-25 15:57 | 37.41871 | -5.91289 | 77 ft | 20 kts | 135° |
| 2026-03-25 15:57 | 37.41792 | -5.91113 | 78 ft | 28 kts | 97° |
| 2026-03-25 15:57 | 37.41789 | -5.90627 | 81 ft | 94 kts | 90° |
| 2026-03-25 15:57 | 37.41797 | -5.89521 | 124 ft | 154 kts | 88° |
| 2026-03-25 15:58 | 37.41800 | -5.88170 | 760 ft | 159 kts | 90° |
| 2026-03-25 15:58 | 37.41750 | -5.86779 | 1557 ft | 162 kts | 91° |
| 2026-03-25 15:58 | 37.41665 | -5.85404 | 2275 ft | 165 kts | 91° |
| 2026-03-25 15:58 | 37.41564 | -5.83898 | 2820 ft | 180 kts | 92° |
| 2026-03-25 15:59 | 37.41471 | -5.82260 | 3357 ft | 198 kts | 92° |
| 2026-03-25 15:59 | 37.41518 | -5.80485 | 3900 ft | 216 kts | 80° |
| 2026-03-25 15:59 | 37.41889 | -5.78600 | 4541 ft | 232 kts | 68° |
| 2026-03-25 15:59 | 37.42656 | -5.76756 | 5225 ft | 247 kts | 51° |
| 2026-03-25 16:00 | 37.44015 | -5.75354 | 5936 ft | 262 kts | 31° |
| 2026-03-25 16:00 | 37.45638 | -5.74340 | 6858 ft | 268 kts | 26° |
| 2026-03-25 16:00 | 37.47342 | -5.73353 | 7772 ft | 273 kts | 26° |
| 2026-03-25 16:00 | 37.49044 | -5.72364 | 8716 ft | 277 kts | 26° |
| 2026-03-25 16:01 | 37.50788 | -5.71337 | 9676 ft | 281 kts | 26° |
| 2026-03-25 16:01 | 37.52559 | -5.70285 | 10584 ft | 285 kts | 26° |
| 2026-03-25 16:01 | 37.54400 | -5.69183 | 11171 ft | 301 kts | 26° |
| 2026-03-25 16:01 | 37.56352 | -5.68007 | 11674 ft | 320 kts | 26° |
| 2026-03-25 16:02 | 37.58400 | -5.66770 | 12161 ft | 338 kts | 26° |
| 2026-03-25 16:02 | 37.60596 | -5.65441 | 12545 ft | 357 kts | 26° |
| 2026-03-25 16:02 | 37.62870 | -5.64061 | 12898 ft | 375 kts | 26° |
| 2026-03-25 16:03 | 37.67703 | -5.61133 | 14166 ft | 392 kts | 26° |
| 2026-03-25 16:03 | 37.70171 | -5.59636 | 14952 ft | 394 kts | 27° |
| 2026-03-25 16:03 | 37.72653 | -5.58129 | 15736 ft | 396 kts | 27° |
| 2026-03-25 16:03 | 37.75120 | -5.56628 | 16447 ft | 399 kts | 27° |
| 2026-03-25 16:04 | 37.77607 | -5.55112 | 17140 ft | 402 kts | 27° |
| 2026-03-25 16:04 | 37.80146 | -5.53565 | 17813 ft | 405 kts | 27° |
| 2026-03-25 16:04 | 37.82676 | -5.52020 | 18472 ft | 407 kts | 28° |
| 2026-03-25 16:04 | 37.85231 | -5.50459 | 19167 ft | 408 kts | 28° |
| 2026-03-25 16:05 | 37.87795 | -5.48891 | 19839 ft | 410 kts | 28° |
| 2026-03-25 16:05 | 37.90334 | -5.47336 | 20432 ft | 412 kts | 28° |
| 2026-03-25 16:05 | 37.92914 | -5.45754 | 21041 ft | 413 kts | 27° |
| 2026-03-25 16:05 | 37.95528 | -5.44152 | 21634 ft | 415 kts | 27° |
| 2026-03-25 16:06 | 37.98112 | -5.42568 | 22217 ft | 416 kts | 28° |
| 2026-03-25 16:06 | 38.00705 | -5.40978 | 22747 ft | 418 kts | 27° |
| 2026-03-25 16:06 | 38.03342 | -5.39358 | 23285 ft | 420 kts | 27° |
| 2026-03-25 16:06 | 38.05950 | -5.37756 | 23782 ft | 422 kts | 28° |
| 2026-03-25 16:07 | 38.08612 | -5.36121 | 24208 ft | 425 kts | 28° |
| 2026-03-25 16:07 | 38.11303 | -5.34461 | 24621 ft | 429 kts | 28° |
| 2026-03-25 16:07 | 38.13956 | -5.32824 | 25026 ft | 432 kts | 28° |
| 2026-03-25 16:07 | 38.16690 | -5.31137 | 25447 ft | 434 kts | 28° |
| 2026-03-25 16:08 | 38.19378 | -5.29480 | 25956 ft | 433 kts | 28° |
| 2026-03-25 16:08 | 38.22092 | -5.27804 | 26483 ft | 432 kts | 28° |
| 2026-03-25 16:08 | 38.24792 | -5.26138 | 26979 ft | 432 kts | 28° |
| 2026-03-25 16:08 | 38.27483 | -5.24474 | 27457 ft | 432 kts | 28° |
| 2026-03-25 16:09 | 38.30172 | -5.22809 | 27915 ft | 432 kts | 28° |
| 2026-03-25 16:09 | 38.32874 | -5.21136 | 28384 ft | 432 kts | 27° |
| 2026-03-25 16:09 | 38.35562 | -5.19467 | 28857 ft | 431 kts | 27° |
| 2026-03-25 16:09 | 38.38286 | -5.17777 | 29313 ft | 432 kts | 28° |
| 2026-03-25 16:10 | 38.40980 | -5.16104 | 29772 ft | 431 kts | 28° |
| 2026-03-25 16:10 | 38.43671 | -5.14432 | 30235 ft | 431 kts | 27° |
| 2026-03-25 16:10 | 38.46335 | -5.12773 | 30654 ft | 431 kts | 27° |
| 2026-03-25 16:10 | 38.49042 | -5.11086 | 30997 ft | 433 kts | 27° |
| 2026-03-25 16:11 | 38.51776 | -5.09507 | 31281 ft | 436 kts | 24° |
| 2026-03-25 16:11 | 38.54607 | -5.08028 | 31596 ft | 438 kts | 23° |
| 2026-03-25 16:11 | 38.57415 | -5.06591 | 31894 ft | 440 kts | 23° |
| 2026-03-25 16:11 | 38.60279 | -5.05132 | 32075 ft | 442 kts | 23° |
| 2026-03-25 16:12 | 38.63155 | -5.03665 | 32080 ft | 443 kts | 23° |
| 2026-03-25 16:12 | 38.68858 | -5.00750 | 32086 ft | 443 kts | 23° |
| 2026-03-25 16:13 | 38.74603 | -4.97804 | 32083 ft | 444 kts | 23° |
| 2026-03-25 16:13 | 38.80310 | -4.94868 | 32080 ft | 444 kts | 23° |
| 2026-03-25 16:14 | 38.86063 | -4.91903 | 32085 ft | 446 kts | 22° |
| 2026-03-25 16:14 | 38.91815 | -4.88937 | 32093 ft | 447 kts | 22° |
| 2026-03-25 16:15 | 38.97586 | -4.85956 | 32092 ft | 446 kts | 22° |
| 2026-03-25 16:15 | 39.03324 | -4.82985 | 32096 ft | 446 kts | 22° |
| 2026-03-25 16:16 | 39.09059 | -4.80009 | 32102 ft | 446 kts | 22° |
| 2026-03-25 16:16 | 39.14754 | -4.76716 | 31929 ft | 446 kts | 28° |
| 2026-03-25 16:16 | 39.17444 | -4.74743 | 31676 ft | 443 kts | 32° |
| 2026-03-25 16:17 | 39.19976 | -4.72598 | 31247 ft | 441 kts | 35° |
| 2026-03-25 16:17 | 39.22411 | -4.70224 | 30580 ft | 437 kts | 39° |
| 2026-03-25 16:17 | 39.24707 | -4.67664 | 29791 ft | 435 kts | 42° |
| 2026-03-25 16:17 | 39.26877 | -4.64952 | 28954 ft | 434 kts | 44° |
| 2026-03-25 16:18 | 39.29003 | -4.62208 | 28076 ft | 434 kts | 44° |
| 2026-03-25 16:18 | 39.31101 | -4.59483 | 27196 ft | 435 kts | 44° |
| 2026-03-25 16:18 | 39.33235 | -4.56710 | 26271 ft | 436 kts | 44° |
| 2026-03-25 16:18 | 39.35357 | -4.53947 | 25299 ft | 437 kts | 44° |
| 2026-03-25 16:19 | 39.37489 | -4.51174 | 24300 ft | 436 kts | 44° |
| 2026-03-25 16:19 | 39.39608 | -4.48421 | 23646 ft | 426 kts | 44° |
| 2026-03-25 16:19 | 39.41653 | -4.45760 | 23028 ft | 419 kts | 44° |
| 2026-03-25 16:19 | 39.43704 | -4.43088 | 22395 ft | 415 kts | 44° |
| 2026-03-25 16:20 | 39.45731 | -4.40445 | 21760 ft | 411 kts | 44° |
| 2026-03-25 16:20 | 39.47728 | -4.37839 | 21131 ft | 406 kts | 44° |
| 2026-03-25 16:20 | 39.49700 | -4.35266 | 20514 ft | 402 kts | 44° |
| 2026-03-25 16:20 | 39.51640 | -4.32732 | 19900 ft | 398 kts | 44° |
| 2026-03-25 16:21 | 39.53574 | -4.30198 | 19295 ft | 394 kts | 44° |
| 2026-03-25 16:21 | 39.55493 | -4.27688 | 18690 ft | 390 kts | 44° |
| 2026-03-25 16:21 | 39.57390 | -4.25204 | 18055 ft | 388 kts | 44° |
| 2026-03-25 16:21 | 39.59263 | -4.22745 | 17411 ft | 386 kts | 44° |
| 2026-03-25 16:22 | 39.61142 | -4.20279 | 16908 ft | 379 kts | 44° |
| 2026-03-25 16:22 | 39.62971 | -4.17874 | 16471 ft | 370 kts | 44° |
| 2026-03-25 16:22 | 39.64733 | -4.15555 | 16082 ft | 361 kts | 44° |
| 2026-03-25 16:22 | 39.66469 | -4.13268 | 15799 ft | 349 kts | 44° |
| 2026-03-25 16:23 | 39.68145 | -4.11059 | 15523 ft | 338 kts | 44° |
| 2026-03-25 16:23 | 39.69781 | -4.08905 | 15198 ft | 330 kts | 44° |
| 2026-03-25 16:23 | 39.71344 | -4.06842 | 14974 ft | 319 kts | 44° |
| 2026-03-25 16:23 | 39.72884 | -4.04811 | 14792 ft | 307 kts | 44° |
| 2026-03-25 16:24 | 39.74342 | -4.02886 | 14641 ft | 296 kts | 44° |
| 2026-03-25 16:24 | 39.75754 | -4.01019 | 14488 ft | 285 kts | 44° |
| 2026-03-25 16:24 | 39.77126 | -3.99205 | 14347 ft | 274 kts | 44° |
| 2026-03-25 16:24 | 39.78419 | -3.97493 | 14221 ft | 263 kts | 44° |
| 2026-03-25 16:25 | 39.79676 | -3.95828 | 14107 ft | 252 kts | 44° |
| 2026-03-25 16:25 | 39.80886 | -3.94226 | 14008 ft | 243 kts | 44° |
| 2026-03-25 16:25 | 39.82095 | -3.92627 | 13986 ft | 253 kts | 44° |
| 2026-03-25 16:25 | 39.83338 | -3.90982 | 13789 ft | 256 kts | 44° |
| 2026-03-25 16:26 | 39.84575 | -3.89343 | 13444 ft | 256 kts | 44° |
| 2026-03-25 16:26 | 39.85819 | -3.87692 | 13114 ft | 255 kts | 44° |
| 2026-03-25 16:26 | 39.87055 | -3.86050 | 12803 ft | 253 kts | 44° |
| 2026-03-25 16:27 | 39.89496 | -3.82803 | 12206 ft | 249 kts | 44° |
| 2026-03-25 16:27 | 39.90691 | -3.81212 | 11913 ft | 247 kts | 44° |
| 2026-03-25 16:27 | 39.91885 | -3.79624 | 11604 ft | 246 kts | 44° |
| 2026-03-25 16:27 | 39.93084 | -3.78028 | 11310 ft | 244 kts | 44° |
| 2026-03-25 16:28 | 39.94271 | -3.76449 | 11000 ft | 242 kts | 44° |
| 2026-03-25 16:28 | 39.95431 | -3.74903 | 10708 ft | 241 kts | 44° |
| 2026-03-25 16:28 | 39.96600 | -3.73342 | 10438 ft | 240 kts | 44° |
| 2026-03-25 16:28 | 39.97767 | -3.71786 | 10118 ft | 241 kts | 44° |
| 2026-03-25 16:29 | 39.98931 | -3.70229 | 9775 ft | 240 kts | 44° |
| 2026-03-25 16:29 | 40.00097 | -3.68672 | 9482 ft | 238 kts | 44° |
| 2026-03-25 16:29 | 40.01250 | -3.67128 | 9228 ft | 235 kts | 44° |
| 2026-03-25 16:29 | 40.02380 | -3.65616 | 8974 ft | 233 kts | 44° |
| 2026-03-25 16:30 | 40.03500 | -3.64115 | 8726 ft | 232 kts | 44° |
| 2026-03-25 16:30 | 40.04631 | -3.62602 | 8423 ft | 231 kts | 44° |
| 2026-03-25 16:30 | 40.05738 | -3.61120 | 8154 ft | 229 kts | 44° |
| 2026-03-25 16:30 | 40.06855 | -3.59624 | 7904 ft | 228 kts | 44° |
| 2026-03-25 16:31 | 40.07949 | -3.58157 | 7605 ft | 227 kts | 44° |
| 2026-03-25 16:31 | 40.09049 | -3.56682 | 7330 ft | 225 kts | 44° |
| 2026-03-25 16:31 | 40.10137 | -3.55222 | 7062 ft | 225 kts | 44° |
| 2026-03-25 16:31 | 40.11216 | -3.53772 | 6798 ft | 224 kts | 44° |
| 2026-03-25 16:32 | 40.12306 | -3.52309 | 6526 ft | 224 kts | 44° |
| 2026-03-25 16:32 | 40.13393 | -3.50847 | 6252 ft | 223 kts | 44° |
| 2026-03-25 16:32 | 40.14463 | -3.49408 | 6031 ft | 220 kts | 44° |
| 2026-03-25 16:32 | 40.15501 | -3.48010 | 5998 ft | 212 kts | 44° |
| 2026-03-25 16:33 | 40.16534 | -3.46619 | 5996 ft | 213 kts | 43° |
| 2026-03-25 16:33 | 40.17604 | -3.45278 | 5841 ft | 214 kts | 40° |
| 2026-03-25 16:33 | 40.18713 | -3.43971 | 5556 ft | 213 kts | 40° |
| 2026-03-25 16:33 | 40.19812 | -3.42682 | 5275 ft | 215 kts | 40° |
| 2026-03-25 16:34 | 40.21003 | -3.41371 | 5001 ft | 227 kts | 32° |
| 2026-03-25 16:34 | 40.22346 | -3.40316 | 4708 ft | 228 kts | 27° |
| 2026-03-25 16:34 | 40.23737 | -3.39313 | 4415 ft | 227 kts | 27° |
| 2026-03-25 16:34 | 40.25139 | -3.38341 | 4092 ft | 227 kts | 21° |
| 2026-03-25 16:35 | 40.26645 | -3.38055 | 3991 ft | 216 kts | 353° |
| 2026-03-25 16:35 | 40.28073 | -3.38402 | 3989 ft | 201 kts | 347° |
| 2026-03-25 16:35 | 40.29358 | -3.38897 | 3977 ft | 189 kts | 339° |
| 2026-03-25 16:35 | 40.30549 | -3.39654 | 3989 ft | 189 kts | 330° |
| 2026-03-25 16:36 | 40.31654 | -3.40590 | 3989 ft | 189 kts | 327° |
| 2026-03-25 16:36 | 40.32734 | -3.41604 | 3993 ft | 190 kts | 325° |
| 2026-03-25 16:36 | 40.33782 | -3.42641 | 3994 ft | 190 kts | 324° |
| 2026-03-25 16:36 | 40.34824 | -3.43697 | 3994 ft | 190 kts | 323° |
| 2026-03-25 16:37 | 40.35869 | -3.44765 | 3994 ft | 190 kts | 323° |
| 2026-03-25 16:37 | 40.36909 | -3.45828 | 3993 ft | 189 kts | 323° |
| 2026-03-25 16:37 | 40.37944 | -3.46886 | 3937 ft | 187 kts | 323° |
| 2026-03-25 16:37 | 40.38945 | -3.47908 | 3743 ft | 179 kts | 323° |
| 2026-03-25 16:38 | 40.39912 | -3.48893 | 3487 ft | 170 kts | 323° |
| 2026-03-25 16:38 | 40.40807 | -3.49803 | 3274 ft | 156 kts | 323° |
| 2026-03-25 16:38 | 40.41623 | -3.50634 | 3064 ft | 142 kts | 324° |
| 2026-03-25 16:38 | 40.42387 | -3.51409 | 2877 ft | 136 kts | 323° |
| 2026-03-25 16:39 | 40.43129 | -3.52166 | 2716 ft | 136 kts | 323° |
| 2026-03-25 16:39 | 40.43877 | -3.52923 | 2542 ft | 135 kts | 323° |
| 2026-03-25 16:39 | 40.44625 | -3.53674 | 2373 ft | 135 kts | 323° |
| 2026-03-25 16:39 | 40.45375 | -3.54426 | 2214 ft | 135 kts | 322° |
| 2026-03-25 16:40 | 40.46110 | -3.55183 | 2050 ft | 134 kts | 322° |
| 2026-03-25 16:40 | 40.46830 | -3.55926 | 1965 ft | 123 kts | 321° |
| 2026-03-25 16:40 | 40.47389 | -3.56486 | 1980 ft | 71 kts | 320° |
| 2026-03-25 16:40 | 40.47541 | -3.56752 | 1987 ft | 11 kts | 296° |
| 2026-03-25 16:41 | 40.47547 | -3.56766 | 1987 ft | 0 kts | 296° |
| 2026-03-25 16:42 | 40.47561 | -3.56804 | 1989 ft | 15 kts | 294° |
| 2026-03-25 16:42 | 40.47517 | -3.56880 | 1992 ft | 11 kts | 164° |
| 2026-03-25 16:42 | 40.47440 | -3.56813 | 1990 ft | 14 kts | 139° |
| 2026-03-25 16:42 | 40.47357 | -3.56722 | 1988 ft | 16 kts | 140° |
| 2026-03-25 16:43 | 40.47262 | -3.56624 | 1986 ft | 18 kts | 142° |
| 2026-03-25 16:43 | 40.47159 | -3.56527 | 1983 ft | 18 kts | 149° |
| 2026-03-25 16:43 | 40.47036 | -3.56468 | 1982 ft | 18 kts | 166° |
| 2026-03-25 16:43 | 40.46912 | -3.56462 | 1982 ft | 16 kts | 184° |
| 2026-03-25 16:44 | 40.46812 | -3.56481 | 1983 ft | 13 kts | 216° |
| 2026-03-25 16:44 | 40.46802 | -3.56573 | 1988 ft | 8 kts | 273° |
| 2026-03-25 16:44 | 40.46802 | -3.56627 | 1991 ft | 3 kts | 258° |
| 2026-03-25 16:45 | 40.46728 | -3.56665 | 1993 ft | 17 kts | 183° |
| 2026-03-25 16:45 | 40.46632 | -3.56674 | 1993 ft | 9 kts | 186° |
| 2026-03-25 16:45 | 40.46596 | -3.56718 | 1996 ft | 4 kts | 250° |
| 2026-03-25 16:45 | 40.46592 | -3.56736 | 1997 ft | 0 kts | 257° |
| 2026-03-25 16:46 | 40.46590 | -3.56751 | 1998 ft | 6 kts | 256° |
| 2026-03-25 16:46 | 40.46573 | -3.56821 | 2000 ft | 3 kts | 252° |
| 2026-03-25 16:46 | 40.46571 | -3.56829 | 2000 ft | 0 kts | 253° |